sensor_id;sensor_type;location;lat;lon;timestamp;pressure;altitude;pressure_sealevel;temperature;humidity
69879;BME280;57161;43.136;24.706;2022-08-06T00:02:26;98839.84;;;23.75;50.82
69879;BME280;57161;43.136;24.706;2022-08-06T00:04:53;98837.47;;;23.70;50.81
69879;BME280;57161;43.136;24.706;2022-08-06T00:07:19;98848.06;;;23.67;51.12
69879;BME280;57161;43.136;24.706;2022-08-06T00:09:45;98848.16;;;23.69;50.88
69879;BME280;57161;43.136;24.706;2022-08-06T00:12:10;98840.97;;;23.68;50.89
69879;BME280;57161;43.136;24.706;2022-08-06T00:14:36;98843.47;;;23.60;50.93
69879;BME280;57161;43.136;24.706;2022-08-06T00:17:02;98843.25;;;23.56;51.12
69879;BME280;57161;43.136;24.706;2022-08-06T00:19:28;98833.97;;;23.55;51.32
69879;BME280;57161;43.136;24.706;2022-08-06T00:21:54;98839.66;;;23.55;51.56
69879;BME280;57161;43.136;24.706;2022-08-06T00:24:20;98843.38;;;23.58;51.43
69879;BME280;57161;43.136;24.706;2022-08-06T00:26:46;98822.13;;;23.45;51.52
69879;BME280;57161;43.136;24.706;2022-08-06T00:29:12;98841.44;;;23.47;51.66
69879;BME280;57161;43.136;24.706;2022-08-06T00:31:37;98839.47;;;23.35;52.03
69879;BME280;57161;43.136;24.706;2022-08-06T00:34:03;98831.00;;;23.22;52.39
69879;BME280;57161;43.136;24.706;2022-08-06T00:36:32;98832.78;;;23.29;52.06
69879;BME280;57161;43.136;24.706;2022-08-06T00:39:00;98833.53;;;23.29;52.22
69879;BME280;57161;43.136;24.706;2022-08-06T00:41:29;98841.34;;;23.29;52.00
69879;BME280;57161;43.136;24.706;2022-08-06T00:43:56;98848.13;;;23.22;52.44
69879;BME280;57161;43.136;24.706;2022-08-06T00:46:22;98832.56;;;23.09;52.31
69879;BME280;57161;43.136;24.706;2022-08-06T00:48:48;98840.50;;;23.11;52.81
69879;BME280;57161;43.136;24.706;2022-08-06T00:51:13;98838.81;;;23.05;52.63
69879;BME280;57161;43.136;24.706;2022-08-06T00:53:39;98847.44;;;23.08;52.79
69879;BME280;57161;43.136;24.706;2022-08-06T00:56:05;98841.66;;;23.05;52.82
69879;BME280;57161;43.136;24.706;2022-08-06T00:58:30;98843.78;;;23.05;52.79
69879;BME280;57161;43.136;24.706;2022-08-06T01:00:56;98821.59;;;22.88;52.85
69879;BME280;57161;43.136;24.706;2022-08-06T01:03:22;98849.47;;;23.05;52.87
69879;BME280;57161;43.136;24.706;2022-08-06T01:05:48;98843.41;;;22.97;52.67
69879;BME280;57161;43.136;24.706;2022-08-06T01:08:13;98846.44;;;23.01;52.89
69879;BME280;57161;43.136;24.706;2022-08-06T01:13:05;98827.47;;;22.92;52.77
69879;BME280;57161;43.136;24.706;2022-08-06T01:18:04;98848.66;;;23.02;52.44
69879;BME280;57161;43.136;24.706;2022-08-06T01:31:26;98834.06;;;22.81;52.85
69879;BME280;57161;43.136;24.706;2022-08-06T01:34:00;98859.03;;;22.96;52.85
69879;BME280;57161;43.136;24.706;2022-08-06T01:36:37;98855.03;;;22.87;53.28
69879;BME280;57161;43.136;24.706;2022-08-06T01:39:04;98837.88;;;22.71;53.15
69879;BME280;57161;43.136;24.706;2022-08-06T01:41:38;98853.25;;;22.80;53.52
69879;BME280;57161;43.136;24.706;2022-08-06T01:44:15;98837.16;;;22.71;53.56
69879;BME280;57161;43.136;24.706;2022-08-06T01:46:49;98848.63;;;22.73;53.46
69879;BME280;57161;43.136;24.706;2022-08-06T01:49:19;98857.72;;;22.69;53.93
69879;BME280;57161;43.136;24.706;2022-08-06T01:51:49;98844.13;;;22.68;53.76
69879;BME280;57161;43.136;24.706;2022-08-06T01:54:16;98849.63;;;22.64;54.06
69879;BME280;57161;43.136;24.706;2022-08-06T01:56:45;98842.34;;;22.61;54.01
69879;BME280;57161;43.136;24.706;2022-08-06T01:59:12;98843.94;;;22.64;53.92
69879;BME280;57161;43.136;24.706;2022-08-06T02:01:40;98841.28;;;22.68;53.63
69879;BME280;57161;43.136;24.706;2022-08-06T02:04:09;98835.91;;;22.60;53.65
69879;BME280;57161;43.136;24.706;2022-08-06T02:06:40;98831.81;;;22.63;53.76
69879;BME280;57161;43.136;24.706;2022-08-06T02:09:12;98840.53;;;22.67;53.96
69879;BME280;57161;43.136;24.706;2022-08-06T02:11:41;98835.69;;;22.70;53.87
69879;BME280;57161;43.136;24.706;2022-08-06T02:14:09;98832.19;;;22.71;54.25
69879;BME280;57161;43.136;24.706;2022-08-06T02:16:40;98830.25;;;22.76;53.71
69879;BME280;57161;43.136;24.706;2022-08-06T02:19:07;98833.66;;;22.72;53.35
69879;BME280;57161;43.136;24.706;2022-08-06T02:21:34;98808.81;;;22.59;53.69
69879;BME280;57161;43.136;24.706;2022-08-06T02:24:05;98825.84;;;22.73;53.68
69879;BME280;57161;43.136;24.706;2022-08-06T02:26:33;98835.22;;;22.75;53.53
69879;BME280;57161;43.136;24.706;2022-08-06T02:29:02;98828.00;;;22.59;53.67
69879;BME280;57161;43.136;24.706;2022-08-06T02:31:28;98825.84;;;22.43;54.21
69879;BME280;57161;43.136;24.706;2022-08-06T02:33:54;98834.72;;;22.36;54.51
69879;BME280;57161;43.136;24.706;2022-08-06T02:36:24;98825.47;;;22.35;54.72
69879;BME280;57161;43.136;24.706;2022-08-06T02:47:53;98838.25;;;22.21;55.10
69879;BME280;57161;43.136;24.706;2022-08-06T02:50:26;98831.81;;;22.20;54.93
69879;BME280;57161;43.136;24.706;2022-08-06T02:52:58;98832.00;;;22.24;55.14
69879;BME280;57161;43.136;24.706;2022-08-06T02:55:30;98841.28;;;22.25;54.87
69879;BME280;57161;43.136;24.706;2022-08-06T02:58:08;98845.41;;;22.22;55.27
69879;BME280;57161;43.136;24.706;2022-08-06T03:00:37;98852.69;;;22.11;55.75
69879;BME280;57161;43.136;24.706;2022-08-06T03:03:06;98848.03;;;22.04;55.80
69879;BME280;57161;43.136;24.706;2022-08-06T03:05:33;98844.25;;;21.99;56.06
69879;BME280;57161;43.136;24.706;2022-08-06T03:08:01;98850.28;;;22.05;56.11
69879;BME280;57161;43.136;24.706;2022-08-06T03:10:28;98843.50;;;21.99;56.12
69879;BME280;57161;43.136;24.706;2022-08-06T03:12:56;98850.69;;;22.00;56.22
69879;BME280;57161;43.136;24.706;2022-08-06T03:15:23;98842.16;;;22.00;56.22
69879;BME280;57161;43.136;24.706;2022-08-06T03:17:50;98849.31;;;22.01;56.13
69879;BME280;57161;43.136;24.706;2022-08-06T03:20:20;98853.13;;;22.05;56.16
69879;BME280;57161;43.136;24.706;2022-08-06T03:22:50;98832.69;;;21.81;56.56
69879;BME280;57161;43.136;24.706;2022-08-06T03:25:18;98867.94;;;21.90;56.69
69879;BME280;57161;43.136;24.706;2022-08-06T03:27:44;98859.41;;;21.76;56.87
69879;BME280;57161;43.136;24.706;2022-08-06T03:30:14;98862.88;;;21.75;56.97
69879;BME280;57161;43.136;24.706;2022-08-06T03:32:40;98862.88;;;21.75;56.96
69879;BME280;57161;43.136;24.706;2022-08-06T03:35:08;98859.09;;;21.70;56.78
69879;BME280;57161;43.136;24.706;2022-08-06T03:37:35;98862.25;;;21.76;56.93
69879;BME280;57161;43.136;24.706;2022-08-06T03:40:03;98860.97;;;21.79;57.03
69879;BME280;57161;43.136;24.706;2022-08-06T03:42:29;98871.75;;;21.81;56.78
69879;BME280;57161;43.136;24.706;2022-08-06T03:44:55;98866.81;;;21.81;57.03
69879;BME280;57161;43.136;24.706;2022-08-06T03:47:22;98871.75;;;21.81;56.85
69879;BME280;57161;43.136;24.706;2022-08-06T03:50:18;98870.16;;;21.92;56.75
69879;BME280;57161;43.136;24.706;2022-08-06T03:52:52;98863.72;;;21.91;56.35
69879;BME280;57161;43.136;24.706;2022-08-06T03:55:23;98878.19;;;22.09;56.15
69879;BME280;57161;43.136;24.706;2022-08-06T03:57:52;98874.81;;;22.12;56.16
69879;BME280;57161;43.136;24.706;2022-08-06T04:00:21;98879.44;;;22.20;56.11
69879;BME280;57161;43.136;24.706;2022-08-06T04:02:50;98877.13;;;22.30;55.72
69879;BME280;57161;43.136;24.706;2022-08-06T04:05:21;98879.00;;;22.39;55.54
69879;BME280;57161;43.136;24.706;2022-08-06T04:07:49;98882.78;;;22.43;55.50
69879;BME280;57161;43.136;24.706;2022-08-06T04:10:18;98878.44;;;22.42;55.67
69879;BME280;57161;43.136;24.706;2022-08-06T04:12:45;98893.13;;;22.37;55.77
69879;BME280;57161;43.136;24.706;2022-08-06T04:15:14;98881.75;;;22.37;55.99
69879;BME280;57161;43.136;24.706;2022-08-06T04:17:41;98887.00;;;22.29;55.89
69879;BME280;57161;43.136;24.706;2022-08-06T04:20:09;98880.63;;;22.14;56.24
69879;BME280;57161;43.136;24.706;2022-08-06T04:22:35;98878.59;;;22.17;56.40
69879;BME280;57161;43.136;24.706;2022-08-06T04:25:02;98888.81;;;22.22;56.19
69879;BME280;57161;43.136;24.706;2022-08-06T04:27:29;98896.81;;;22.26;56.12
69879;BME280;57161;43.136;24.706;2022-08-06T04:29:58;98901.03;;;22.25;56.43
69879;BME280;57161;43.136;24.706;2022-08-06T04:32:25;98906.81;;;22.27;56.30
69879;BME280;57161;43.136;24.706;2022-08-06T04:34:52;98909.16;;;22.30;55.90
69879;BME280;57161;43.136;24.706;2022-08-06T04:37:19;98905.25;;;22.37;56.08
69879;BME280;57161;43.136;24.706;2022-08-06T04:39:45;98898.50;;;22.31;55.64
69879;BME280;57161;43.136;24.706;2022-08-06T04:42:11;98911.97;;;22.44;55.91
69879;BME280;57161;43.136;24.706;2022-08-06T04:44:37;98907.97;;;22.49;55.72
69879;BME280;57161;43.136;24.706;2022-08-06T04:47:04;98894.16;;;22.43;55.73
69879;BME280;57161;43.136;24.706;2022-08-06T04:49:30;98907.00;;;22.58;55.80
69879;BME280;57161;43.136;24.706;2022-08-06T04:51:55;98900.34;;;22.67;55.16
69879;BME280;57161;43.136;24.706;2022-08-06T04:54:21;98906.63;;;22.80;55.25
69879;BME280;57161;43.136;24.706;2022-08-06T04:56:47;98897.13;;;22.89;54.80
69879;BME280;57161;43.136;24.706;2022-08-06T04:59:12;98910.03;;;23.05;54.85
69879;BME280;57161;43.136;24.706;2022-08-06T05:01:38;98912.97;;;23.08;54.90
69879;BME280;57161;43.136;24.706;2022-08-06T05:04:04;98892.56;;;22.97;54.98
69879;BME280;57161;43.136;24.706;2022-08-06T05:07:05;98915.41;;;23.13;55.39
69879;BME280;57161;43.136;24.706;2022-08-06T05:09:31;98918.72;;;23.23;55.05
69879;BME280;57161;43.136;24.706;2022-08-06T05:12:06;98918.38;;;23.31;55.04
69879;BME280;57161;43.136;24.706;2022-08-06T05:14:40;98908.28;;;23.44;54.94
69879;BME280;57161;43.136;24.706;2022-08-06T05:17:11;98904.41;;;23.53;54.23
69879;BME280;57161;43.136;24.706;2022-08-06T05:19:45;98906.31;;;23.62;54.11
69879;BME280;57161;43.136;24.706;2022-08-06T05:22:13;98917.88;;;23.66;54.15
69879;BME280;57161;43.136;24.706;2022-08-06T05:24:40;98912.00;;;23.78;54.26
69879;BME280;57161;43.136;24.706;2022-08-06T05:27:06;98914.38;;;23.83;54.08
69879;BME280;57161;43.136;24.706;2022-08-06T05:29:34;98925.78;;;23.99;53.59
69879;BME280;57161;43.136;24.706;2022-08-06T05:32:00;98914.47;;;24.01;53.34
69879;BME280;57161;43.136;24.706;2022-08-06T05:34:27;98930.00;;;24.14;53.03
69879;BME280;57161;43.136;24.706;2022-08-06T05:36:52;98919.31;;;24.14;52.93
69879;BME280;57161;43.136;24.706;2022-08-06T05:39:18;98923.09;;;24.19;52.92
69879;BME280;57161;43.136;24.706;2022-08-06T05:41:45;98926.09;;;24.23;52.68
69879;BME280;57161;43.136;24.706;2022-08-06T05:44:11;98918.03;;;24.17;52.84
69879;BME280;57161;43.136;24.706;2022-08-06T05:46:41;98918.69;;;24.16;52.97
69879;BME280;57161;43.136;24.706;2022-08-06T05:49:15;98921.88;;;24.24;52.93
69879;BME280;57161;43.136;24.706;2022-08-06T05:54:56;98921.13;;;24.39;52.81
69879;BME280;57161;43.136;24.706;2022-08-06T05:57:31;98930.31;;;24.53;52.57
69879;BME280;57161;43.136;24.706;2022-08-06T06:00:04;98911.63;;;24.50;52.52
69879;BME280;57161;43.136;24.706;2022-08-06T06:02:35;98930.44;;;24.91;51.95
69879;BME280;57161;43.136;24.706;2022-08-06T06:05:02;98929.47;;;25.02;51.76
69879;BME280;57161;43.136;24.706;2022-08-06T06:07:28;98920.09;;;25.00;51.63
69879;BME280;57161;43.136;24.706;2022-08-06T06:09:55;98920.84;;;25.00;51.92
69879;BME280;57161;43.136;24.706;2022-08-06T06:12:22;98924.19;;;25.12;51.83
69879;BME280;57161;43.136;24.706;2022-08-06T06:14:49;98912.91;;;25.17;51.37
69879;BME280;57161;43.136;24.706;2022-08-06T06:23:10;98925.03;;;25.53;50.44
69879;BME280;57161;43.136;24.706;2022-08-06T06:25:44;98923.16;;;25.59;50.16
69879;BME280;57161;43.136;24.706;2022-08-06T06:30:58;98925.91;;;25.75;49.78
69879;BME280;57161;43.136;24.706;2022-08-06T06:33:46;98916.75;;;25.79;49.36
69879;BME280;57161;43.136;24.706;2022-08-06T06:39:00;98908.44;;;25.87;49.29
69879;BME280;57161;43.136;24.706;2022-08-06T06:41:55;98922.78;;;26.07;49.33
69879;BME280;57161;43.136;24.706;2022-08-06T06:44:46;98915.50;;;26.23;49.09
69879;BME280;57161;43.136;24.706;2022-08-06T06:47:47;98918.16;;;26.37;49.02
69879;BME280;57161;43.136;24.706;2022-08-06T06:50:15;98911.91;;;26.43;48.77
69879;BME280;57161;43.136;24.706;2022-08-06T06:52:44;98919.16;;;26.68;48.58
69879;BME280;57161;43.136;24.706;2022-08-06T06:55:24;98915.97;;;26.79;48.35
69879;BME280;57161;43.136;24.706;2022-08-06T06:57:58;98925.47;;;27.06;47.48
69879;BME280;57161;43.136;24.706;2022-08-06T07:00:27;98929.31;;;27.14;46.79
69879;BME280;57161;43.136;24.706;2022-08-06T07:02:54;98922.91;;;27.16;46.34
69879;BME280;57161;43.136;24.706;2022-08-06T07:05:21;98926.22;;;27.30;46.10
69879;BME280;57161;43.136;24.706;2022-08-06T07:07:48;98914.22;;;27.36;46.84
69879;BME280;57161;43.136;24.706;2022-08-06T07:10:15;98922.50;;;27.49;46.24
69879;BME280;57161;43.136;24.706;2022-08-06T07:12:44;98924.56;;;27.69;46.03
69879;BME280;57161;43.136;24.706;2022-08-06T07:15:11;98918.38;;;27.78;45.84
69879;BME280;57161;43.136;24.706;2022-08-06T07:17:38;98924.66;;;27.97;45.11
69879;BME280;57161;43.136;24.706;2022-08-06T07:20:08;98922.22;;;28.13;43.99
69879;BME280;57161;43.136;24.706;2022-08-06T07:22:38;98905.91;;;28.20;43.66
69879;BME280;57161;43.136;24.706;2022-08-06T07:25:06;98916.06;;;28.49;43.71
69879;BME280;57161;43.136;24.706;2022-08-06T07:27:35;98929.78;;;28.80;43.42
69879;BME280;57161;43.136;24.706;2022-08-06T07:30:03;98882.22;;;28.75;42.46
69879;BME280;57161;43.136;24.706;2022-08-06T07:32:29;98914.91;;;29.18;42.04
69879;BME280;57161;43.136;24.706;2022-08-06T07:34:55;98911.63;;;29.32;41.33
69879;BME280;57161;43.136;24.706;2022-08-06T07:37:22;98912.78;;;29.50;40.88
69879;BME280;57161;43.136;24.706;2022-08-06T07:39:52;98915.28;;;29.66;40.77
69879;BME280;57161;43.136;24.706;2022-08-06T07:42:19;98919.88;;;29.79;40.34
69879;BME280;57161;43.136;24.706;2022-08-06T07:44:48;98915.69;;;29.86;40.84
69879;BME280;57161;43.136;24.706;2022-08-06T07:47:19;98911.78;;;30.06;39.79
69879;BME280;57161;43.136;24.706;2022-08-06T07:49:50;98908.22;;;30.07;38.64
69879;BME280;57161;43.136;24.706;2022-08-06T07:52:18;98916.72;;;30.37;38.67
69879;BME280;57161;43.136;24.706;2022-08-06T07:54:44;98912.88;;;30.63;39.12
69879;BME280;57161;43.136;24.706;2022-08-06T07:57:12;98900.09;;;30.74;37.11
69879;BME280;57161;43.136;24.706;2022-08-06T07:59:39;98903.84;;;30.83;37.03
69879;BME280;57161;43.136;24.706;2022-08-06T08:02:06;98912.22;;;31.11;37.11
69879;BME280;57161;43.136;24.706;2022-08-06T08:04:33;98916.81;;;31.26;37.32
69879;BME280;57161;43.136;24.706;2022-08-06T08:07:18;98906.72;;;31.27;37.23
69879;BME280;57161;43.136;24.706;2022-08-06T08:09:43;98907.66;;;30.95;37.56
69879;BME280;57161;43.136;24.706;2022-08-06T08:12:11;98902.00;;;31.03;37.42
69879;BME280;57161;43.136;24.706;2022-08-06T08:14:39;98903.28;;;30.92;37.76
69879;BME280;57161;43.136;24.706;2022-08-06T08:17:08;98902.03;;;31.05;37.63
69879;BME280;57161;43.136;24.706;2022-08-06T08:19:34;98913.00;;;31.15;37.66
69879;BME280;57161;43.136;24.706;2022-08-06T08:22:03;98907.94;;;31.14;37.37
69879;BME280;57161;43.136;24.706;2022-08-06T08:24:32;98888.56;;;31.18;37.39
69879;BME280;57161;43.136;24.706;2022-08-06T08:26:59;98901.19;;;31.43;36.99
69879;BME280;57161;43.136;24.706;2022-08-06T08:29:24;98898.41;;;31.51;36.88
69879;BME280;57161;43.136;24.706;2022-08-06T08:31:50;98897.84;;;31.65;37.29
69879;BME280;57161;43.136;24.706;2022-08-06T08:34:16;98896.47;;;31.70;37.10
69879;BME280;57161;43.136;24.706;2022-08-06T08:36:42;98897.41;;;31.85;36.95
69879;BME280;57161;43.136;24.706;2022-08-06T08:39:07;98893.94;;;31.97;36.68
69879;BME280;57161;43.136;24.706;2022-08-06T08:41:37;98900.59;;;32.09;35.86
69879;BME280;57161;43.136;24.706;2022-08-06T08:44:06;98901.31;;;32.08;36.19
69879;BME280;57161;43.136;24.706;2022-08-06T08:46:37;98888.38;;;32.17;36.78
69879;BME280;57161;43.136;24.706;2022-08-06T08:49:06;98895.19;;;32.44;35.80
69879;BME280;57161;43.136;24.706;2022-08-06T08:51:35;98900.09;;;32.29;36.03
69879;BME280;57161;43.136;24.706;2022-08-06T08:54:02;98890.63;;;32.24;35.90
69879;BME280;57161;43.136;24.706;2022-08-06T08:56:31;98886.50;;;32.42;35.87
69879;BME280;57161;43.136;24.706;2022-08-06T08:58:58;98880.75;;;32.46;35.57
69879;BME280;57161;43.136;24.706;2022-08-06T09:01:24;98883.16;;;32.72;35.60
69879;BME280;57161;43.136;24.706;2022-08-06T09:03:50;98888.25;;;32.77;35.23
69879;BME280;57161;43.136;24.706;2022-08-06T09:06:16;98880.94;;;32.68;35.08
69879;BME280;57161;43.136;24.706;2022-08-06T09:08:43;98876.66;;;32.73;35.12
69879;BME280;57161;43.136;24.706;2022-08-06T09:11:09;98881.91;;;32.93;34.52
69879;BME280;57161;43.136;24.706;2022-08-06T09:13:35;98883.44;;;33.06;33.79
69879;BME280;57161;43.136;24.706;2022-08-06T09:16:01;98870.44;;;33.11;33.44
69879;BME280;57161;43.136;24.706;2022-08-06T09:18:26;98867.66;;;33.28;33.80
69879;BME280;57161;43.136;24.706;2022-08-06T09:20:52;98861.19;;;33.35;33.56
69879;BME280;57161;43.136;24.706;2022-08-06T09:23:18;98863.44;;;33.51;33.96
69879;BME280;57161;43.136;24.706;2022-08-06T09:25:49;98872.94;;;33.66;33.36
69879;BME280;57161;43.136;24.706;2022-08-06T09:28:35;98868.63;;;33.71;32.91
69879;BME280;57161;43.136;24.706;2022-08-06T09:33:33;98861.31;;;33.58;32.87
69879;BME280;57161;43.136;24.706;2022-08-06T09:36:02;98868.47;;;33.38;32.54
69879;BME280;57161;43.136;24.706;2022-08-06T09:38:28;98866.22;;;33.31;32.88
69879;BME280;57161;43.136;24.706;2022-08-06T09:41:10;98853.88;;;33.24;32.39
69879;BME280;57161;43.136;24.706;2022-08-06T09:43:37;98860.44;;;33.31;33.08
69879;BME280;57161;43.136;24.706;2022-08-06T09:46:04;98851.84;;;33.47;32.99
69879;BME280;57161;43.136;24.706;2022-08-06T09:48:29;98858.44;;;33.62;32.65
69879;BME280;57161;43.136;24.706;2022-08-06T09:50:57;98866.44;;;33.69;32.67
69879;BME280;57161;43.136;24.706;2022-08-06T09:53:24;98865.00;;;33.68;32.50
69879;BME280;57161;43.136;24.706;2022-08-06T09:55:51;98873.06;;;33.88;32.58
69879;BME280;57161;43.136;24.706;2022-08-06T09:58:32;98865.13;;;34.03;31.78
69879;BME280;57161;43.136;24.706;2022-08-06T10:01:20;98849.19;;;34.08;32.00
69879;BME280;57161;43.136;24.706;2022-08-06T10:03:46;98849.28;;;34.39;32.21
69879;BME280;57161;43.136;24.706;2022-08-06T10:06:14;98844.94;;;34.68;31.81
69879;BME280;57161;43.136;24.706;2022-08-06T10:08:41;98842.75;;;34.91;31.02
69879;BME280;57161;43.136;24.706;2022-08-06T10:11:07;98836.94;;;34.95;30.52
69879;BME280;57161;43.136;24.706;2022-08-06T10:13:33;98823.91;;;34.68;30.77
69879;BME280;57161;43.136;24.706;2022-08-06T10:16:13;98841.28;;;34.61;31.37
69879;BME280;57161;43.136;24.706;2022-08-06T10:18:41;98834.06;;;34.36;31.29
69879;BME280;57161;43.136;24.706;2022-08-06T10:21:11;98838.41;;;34.41;31.21
69879;BME280;57161;43.136;24.706;2022-08-06T10:23:40;98844.84;;;34.07;31.33
69879;BME280;57161;43.136;24.706;2022-08-06T10:26:08;98815.84;;;33.93;31.78
69879;BME280;57161;43.136;24.706;2022-08-06T10:28:37;98842.03;;;34.36;30.97
69879;BME280;57161;43.136;24.706;2022-08-06T10:31:06;98828.97;;;34.37;30.93
69879;BME280;57161;43.136;24.706;2022-08-06T10:33:43;98833.31;;;34.64;31.17
69879;BME280;57161;43.136;24.706;2022-08-06T10:36:13;98832.59;;;34.84;30.62
69879;BME280;57161;43.136;24.706;2022-08-06T10:38:42;98821.69;;;35.05;30.23
69879;BME280;57161;43.136;24.706;2022-08-06T10:41:11;98825.31;;;35.07;29.90
69879;BME280;57161;43.136;24.706;2022-08-06T10:43:38;98818.78;;;35.15;29.85
69879;BME280;57161;43.136;24.706;2022-08-06T10:46:06;98826.00;;;35.24;29.58
69879;BME280;57161;43.136;24.706;2022-08-06T10:48:33;98819.50;;;35.11;29.85
69879;BME280;57161;43.136;24.706;2022-08-06T10:50:59;98826.72;;;35.25;30.07
69879;BME280;57161;43.136;24.706;2022-08-06T10:53:26;98808.53;;;35.48;29.53
69879;BME280;57161;43.136;24.706;2022-08-06T10:55:52;98806.97;;;35.68;29.75
69879;BME280;57161;43.136;24.706;2022-08-06T10:58:18;98798.31;;;35.54;29.16
69879;BME280;57161;43.136;24.706;2022-08-06T11:00:44;98807.09;;;35.39;29.61
69879;BME280;57161;43.136;24.706;2022-08-06T11:03:22;98807.13;;;35.35;29.53
69879;BME280;57161;43.136;24.706;2022-08-06T11:05:58;98802.03;;;35.24;29.72
69879;BME280;57161;43.136;24.706;2022-08-06T11:08:50;98802.75;;;35.36;29.68
69879;BME280;57161;43.136;24.706;2022-08-06T11:14:06;98807.66;;;35.74;29.46
69879;BME280;57161;43.136;24.706;2022-08-06T11:16:33;98809.31;;;35.18;30.18
69879;BME280;57161;43.136;24.706;2022-08-06T11:21:45;98793.84;;;35.75;29.14
69879;BME280;57161;43.136;24.706;2022-08-06T11:24:12;98800.34;;;35.84;29.48
69879;BME280;57161;43.136;24.706;2022-08-06T11:26:40;98797.59;;;35.47;29.32
69879;BME280;57161;43.136;24.706;2022-08-06T11:29:08;98798.47;;;34.97;29.86
69879;BME280;57161;43.136;24.706;2022-08-06T11:31:45;98789.06;;;34.80;30.19
69879;BME280;57161;43.136;24.706;2022-08-06T11:34:16;98787.56;;;35.11;29.80
69879;BME280;57161;43.136;24.706;2022-08-06T11:36:46;98794.06;;;35.14;29.90
69879;BME280;57161;43.136;24.706;2022-08-06T11:39:12;98791.19;;;35.16;29.42
69879;BME280;57161;43.136;24.706;2022-08-06T11:42:00;98788.22;;;35.38;29.64
69879;BME280;57161;43.136;24.706;2022-08-06T11:44:33;98776.59;;;35.34;29.70
69879;BME280;57161;43.136;24.706;2022-08-06T11:47:12;98776.50;;;35.59;29.24
69879;BME280;57161;43.136;24.706;2022-08-06T11:49:39;98772.94;;;35.48;28.90
69879;BME280;57161;43.136;24.706;2022-08-06T11:52:06;98767.88;;;35.40;29.46
69879;BME280;57161;43.136;24.706;2022-08-06T11:54:34;98772.25;;;35.27;29.74
69879;BME280;57161;43.136;24.706;2022-08-06T12:00:08;98788.34;;;34.94;29.87
69879;BME280;57161;43.136;24.706;2022-08-06T12:08:20;98776.72;;;34.96;30.21
69879;BME280;57161;43.136;24.706;2022-08-06T12:11:21;98773.13;;;34.87;29.95
69879;BME280;57161;43.136;24.706;2022-08-06T12:13:47;98758.63;;;34.67;30.07
69879;BME280;57161;43.136;24.706;2022-08-06T12:16:45;98769.50;;;34.68;30.30
69879;BME280;57161;43.136;24.706;2022-08-06T12:19:13;98756.47;;;34.45;30.49
69879;BME280;57161;43.136;24.706;2022-08-06T12:21:40;98765.91;;;34.51;30.73
69879;BME280;57161;43.136;24.706;2022-08-06T12:24:05;98757.13;;;34.82;30.12
69879;BME280;57161;43.136;24.706;2022-08-06T12:26:32;98758.59;;;34.93;29.97
69879;BME280;57161;43.136;24.706;2022-08-06T12:29:00;98746.28;;;34.74;30.38
69879;BME280;57161;43.136;24.706;2022-08-06T12:31:31;98754.28;;;34.49;30.78
69879;BME280;57161;43.136;24.706;2022-08-06T12:33:57;98747.00;;;34.65;30.90
69879;BME280;57161;43.136;24.706;2022-08-06T12:36:26;98739.75;;;34.86;30.72
69879;BME280;57161;43.136;24.706;2022-08-06T12:38:56;98747.69;;;34.81;30.42
69879;BME280;57161;43.136;24.706;2022-08-06T12:41:22;98741.16;;;35.03;30.14
69879;BME280;57161;43.136;24.706;2022-08-06T12:43:56;98740.34;;;35.23;30.12
69879;BME280;57161;43.136;24.706;2022-08-06T12:46:23;98743.28;;;35.15;29.40
69879;BME280;57161;43.136;24.706;2022-08-06T12:48:49;98741.03;;;35.36;29.53
69879;BME280;57161;43.136;24.706;2022-08-06T12:51:15;98745.31;;;35.53;28.92
69879;BME280;57161;43.136;24.706;2022-08-06T12:54:02;98731.44;;;35.66;28.79
69879;BME280;57161;43.136;24.706;2022-08-06T12:56:30;98735.16;;;35.50;28.40
69879;BME280;57161;43.136;24.706;2022-08-06T12:58:56;98729.56;;;34.97;29.41
69879;BME280;57161;43.136;24.706;2022-08-06T13:01:23;98720.88;;;34.93;29.37
69879;BME280;57161;43.136;24.706;2022-08-06T13:03:54;98717.22;;;34.95;29.82
69879;BME280;57161;43.136;24.706;2022-08-06T13:06:24;98716.53;;;34.90;29.79
69879;BME280;57161;43.136;24.706;2022-08-06T13:08:52;98712.91;;;34.79;29.70
69879;BME280;57161;43.136;24.706;2022-08-06T13:11:18;98714.34;;;34.84;29.76
69879;BME280;57161;43.136;24.706;2022-08-06T13:13:51;98720.16;;;34.78;29.96
69879;BME280;57161;43.136;24.706;2022-08-06T13:16:17;98723.81;;;34.60;30.40
69879;BME280;57161;43.136;24.706;2022-08-06T13:19:04;98716.59;;;34.47;30.63
69879;BME280;57161;43.136;24.706;2022-08-06T13:21:30;98724.59;;;34.37;30.72
69879;BME280;57161;43.136;24.706;2022-08-06T13:23:55;98706.44;;;34.26;30.51
69879;BME280;57161;43.136;24.706;2022-08-06T13:26:23;98715.16;;;34.26;30.77
69879;BME280;57161;43.136;24.706;2022-08-06T13:31:34;98710.78;;;34.55;30.53
69879;BME280;57161;43.136;24.706;2022-08-06T13:34:02;98715.81;;;34.85;29.83
69879;BME280;57161;43.136;24.706;2022-08-06T13:36:29;98715.69;;;35.22;29.77
69879;BME280;57161;43.136;24.706;2022-08-06T13:38:55;98708.38;;;35.37;29.21
69879;BME280;57161;43.136;24.706;2022-08-06T13:41:27;98712.00;;;35.34;29.53
69879;BME280;57161;43.136;24.706;2022-08-06T13:43:54;98710.50;;;35.49;28.89
69879;BME280;57161;43.136;24.706;2022-08-06T13:46:21;98706.91;;;35.30;28.89
69879;BME280;57161;43.136;24.706;2022-08-06T13:48:49;98693.97;;;35.07;29.14
69879;BME280;57161;43.136;24.706;2022-08-06T13:51:16;98707.72;;;35.14;29.29
69879;BME280;57161;43.136;24.706;2022-08-06T13:53:42;98697.53;;;35.19;29.23
69879;BME280;57161;43.136;24.706;2022-08-06T13:56:08;98708.38;;;35.37;29.51
69879;BME280;57161;43.136;24.706;2022-08-06T13:58:34;98701.09;;;35.34;29.03
69879;BME280;57161;43.136;24.706;2022-08-06T14:00:59;98718.53;;;35.34;29.11